Aérodrome :
LOGIN :

S'inscrire | Disclaimer

   EN    FR    IT 

 










Légende :    VFR   VFR Marginal   IFR   IFR Intensif   IFR Très Intensif
Visi : 
Plafond : 
>= 8 km
>= 3000ft
5 à 8 km
1000 à 3000 ft
1500m à 5 km
500 à 1000 ft
800 à 1500m
200 à 500 ft
< 800m
< 200 ft
Symboles :   Orages  Brouillard  Fortes neiges  Fortes précipitations  Vent > 20 kt
SIGMETs :   Divers  Orages  Givrage  Turbulence  Onde Orograph.  Cendres Volcan.







- Altitude de l'aérodrome : 374 ft
- Code IATA : LIS


LPPT - Lisboa Portela

METARs EXPIRÉS :
  • 241430Z 36009KT CAVOK 22/13 Q1021
  • 241400Z 33010KT 290V360 CAVOK 23/14 Q1021
  • 241330Z 36010KT 320V020 9999 FEW045 23/13 Q1021
  • 241300Z 35011KT 300V360 9999 FEW045 24/13 Q1021
  • 241230Z 33012KT 290V360 9999 FEW040 25/13 Q1021
  • 241200Z 01011KT 340V040 9999 FEW040 25/14 Q1020

Prévision TAF périmée.
Pas de NOTAMs connus pour ce terrain.
1 SIGMET publié pour la FIR Lisboa (LPPC) :
 
Orages noyés dans la masse
LPPC SIGMET 1 VALID 242050/242330 LPPT
LPPC LISBON FIR EMBD TS FCST S OF LINE N3700 W01230 - N3700 W01030 TOP FL350 MOV NE 30KT NC=



MET'MAP, la Météo Aéronautique d'un coup d'oeil ! - Copyright ORBIFLY Décembre 2007 - Disclaimer

ORBIFLY MET'MAP TEAM :

Programmation & Développement : Alexandra Zaïnal
Conception & Développement : Baudouin d'Aumeries
Co-Programmation & Développement : Marc-Olivier Méhu
Soutien technique & logistique : Manuel Goepfert

Contact : metmap@orbifly.com




SOURCES & CREDITS :

   NOAA